Time;durP1;ratioP1;P1;durP2;ratioP2;P2;SDS_P1;SDS_P2;PMS_P1;PMS_P2;Temp;Humidity;BMP_temperature;BMP_pressure;BME280_temperature;BME280_humidity;BME280_pressure;Samples;Min_cycle;Max_cycle;Signal;HPM_P1;HPM_P2
2023/09/27 00:00:36;;;;;;;4.60;3.43;;;21.40;46.10;;;;;;4973703;28;20195;-52
2023/09/27 00:03:03;;;;;;;4.43;3.37;;;21.40;46.40;;;;;;4973412;28;20207;-53
2023/09/27 00:05:29;;;;;;;4.80;3.40;;;21.40;46.40;;;;;;4973810;28;20474;-53
2023/09/27 00:07:56;;;;;;;5.77;3.33;;;21.40;46.40;;;;;;4973530;28;20431;-53
2023/09/27 00:10:22;;;;;;;5.43;3.20;;;21.30;46.20;;;;;;4973916;28;20423;-52
2023/09/27 00:12:48;;;;;;;6.07;3.37;;;21.30;46.10;;;;;;4973359;28;20455;-52
2023/09/27 00:15:14;;;;;;;4.80;3.07;;;21.30;46.10;;;;;;4973547;28;20410;-53
2023/09/27 00:17:42;;;;;;;5.23;2.87;;;21.30;46.10;;;;;;4973594;28;20494;-53
2023/09/27 00:20:12;;;;;;;3.93;2.93;;;21.20;46.20;;;;;;4973715;28;20466;-53
2023/09/27 00:22:38;;;;;;;4.97;3.17;;;21.10;46.30;;;;;;4973553;28;20428;-52
2023/09/27 00:25:05;;;;;;;5.57;3.10;;;21.10;46.50;;;;;;4973669;28;20437;-51
2023/09/27 00:27:31;;;;;;;7.15;3.65;;;21.00;46.20;;;;;;4973205;28;20575;-51
2023/09/27 00:29:57;;;;;;;7.57;3.73;;;21.00;46.20;;;;;;4973620;28;20184;-51
2023/09/27 00:32:23;;;;;;;6.40;3.10;;;21.00;46.00;;;;;;4973854;28;20461;-50
2023/09/27 00:34:49;;;;;;;4.37;3.67;;;21.00;46.00;;;;;;4973236;28;20850;-50
2023/09/27 00:37:15;;;;;;;6.13;3.37;;;20.90;46.00;;;;;;4973298;28;20196;-51
2023/09/27 00:39:41;;;;;;;6.20;3.13;;;20.90;46.20;;;;;;4973330;28;20743;-51
2023/09/27 00:42:07;;;;;;;3.83;2.60;;;20.90;46.10;;;;;;4972987;28;20183;-52
2023/09/27 00:44:34;;;;;;;5.07;3.43;;;20.90;46.10;;;;;;4973073;28;20963;-51
2023/09/27 00:47:02;;;;;;;3.20;2.60;;;20.90;45.80;;;;;;4973292;28;20435;-53
2023/09/27 00:49:28;;;;;;;3.20;2.73;;;20.90;46.00;;;;;;4973981;28;20416;-50
2023/09/27 00:51:54;;;;;;;4.90;2.53;;;20.80;46.00;;;;;;4974367;28;20458;-56
2023/09/27 00:54:20;;;;;;;6.72;3.70;;;20.70;46.80;;;;;;4973778;28;20411;-55
2023/09/27 00:56:47;;;;;;;3.97;3.40;;;20.60;47.60;;;;;;4973803;28;20176;-55
2023/09/27 00:59:15;;;;;;;4.80;3.00;;;20.50;47.10;;;;;;4973711;28;20914;-55
2023/09/27 01:01:42;;;;;;;5.50;3.00;;;20.40;46.90;;;;;;4976399;28;20427;-55
2023/09/27 01:04:08;;;;;;;4.67;3.50;;;20.40;47.00;;;;;;4977608;28;20926;-55
2023/09/27 01:06:34;;;;;;;6.18;3.13;;;20.40;46.60;;;;;;4977468;28;20416;-55
2023/09/27 01:09:00;;;;;;;3.00;2.07;;;20.50;46.50;;;;;;4977391;28;20678;-53
2023/09/27 01:11:27;;;;;;;4.33;2.70;;;20.40;46.30;;;;;;4977338;28;20422;-55
2023/09/27 01:13:53;;;;;;;3.55;2.45;;;20.50;46.20;;;;;;4977465;28;20829;-56
2023/09/27 01:16:19;;;;;;;4.20;2.90;;;20.40;46.10;;;;;;4976321;28;20268;-54
2023/09/27 01:18:45;;;;;;;3.97;3.23;;;20.40;46.30;;;;;;4976145;28;20196;-55
2023/09/27 01:21:10;;;;;;;8.17;4.80;;;20.40;46.50;;;;;;4977637;28;20172;-56
2023/09/27 01:23:41;;;;;;;6.20;3.27;;;20.30;46.30;;;;;;4977207;28;20295;-55
2023/09/27 01:26:08;;;;;;;5.47;3.53;;;20.30;46.60;;;;;;4977161;28;20199;-55
2023/09/27 01:28:35;;;;;;;5.73;3.20;;;20.30;46.60;;;;;;4977330;28;20434;-55
2023/09/27 01:31:01;;;;;;;3.65;2.28;;;20.30;46.60;;;;;;4977661;28;20415;-54
2023/09/27 01:33:27;;;;;;;4.03;2.70;;;20.30;46.30;;;;;;4977106;28;20214;-53
2023/09/27 01:35:55;;;;;;;4.63;3.27;;;20.30;46.20;;;;;;4977337;28;20167;-53
2023/09/27 01:38:21;;;;;;;2.85;2.05;;;20.30;46.20;;;;;;4977516;28;20948;-54
2023/09/27 01:40:47;;;;;;;6.77;3.67;;;20.20;46.20;;;;;;4977026;28;20191;-53
2023/09/27 01:43:12;;;;;;;3.20;2.43;;;20.20;46.10;;;;;;4977241;28;20234;-56
2023/09/27 01:45:38;;;;;;;4.77;3.67;;;20.20;46.10;;;;;;4976916;28;20256;-50
2023/09/27 01:48:05;;;;;;;5.45;3.13;;;20.20;46.10;;;;;;4976458;28;20207;-52
2023/09/27 01:50:33;;;;;;;6.70;2.95;;;20.20;46.40;;;;;;4976079;28;20176;-51
2023/09/27 01:53:00;;;;;;;4.23;2.77;;;20.20;46.50;;;;;;4974360;28;20274;-53
2023/09/27 01:55:26;;;;;;;3.83;2.55;;;20.10;46.50;;;;;;4975934;28;20905;-51
2023/09/27 01:57:53;;;;;;;4.82;4.32;;;20.10;46.20;;;;;;4976126;28;20200;-50
2023/09/27 02:00:20;;;;;;;5.07;4.32;;;20.10;46.30;;;;;;4976111;28;20176;-50
2023/09/27 02:02:51;;;;;;;7.22;4.00;;;20.10;46.10;;;;;;4975694;28;20176;-51
2023/09/27 02:05:17;;;;;;;6.28;2.97;;;20.10;46.00;;;;;;4975859;28;20207;-51
2023/09/27 02:07:43;;;;;;;3.25;2.95;;;20.10;45.90;;;;;;4975715;28;20196;-52
2023/09/27 02:10:11;;;;;;;3.65;2.95;;;20.10;45.80;;;;;;4975690;28;20176;-50
2023/09/27 02:12:38;;;;;;;3.53;2.05;;;20.10;45.80;;;;;;4975527;28;20219;-51
2023/09/27 02:15:05;;;;;;;4.32;3.15;;;20.10;45.70;;;;;;4975851;28;20187;-51
2023/09/27 02:17:31;;;;;;;3.15;2.50;;;20.10;45.60;;;;;;4975801;28;20231;-51
2023/09/27 02:19:57;;;;;;;5.43;3.33;;;20.10;45.70;;;;;;4975623;28;20200;-50
2023/09/27 02:22:23;;;;;;;4.37;2.70;;;20.10;45.60;;;;;;4975326;28;20172;-52
2023/09/27 02:24:49;;;;;;;2.97;2.00;;;20.10;45.50;;;;;;4975462;28;20415;-50
2023/09/27 02:27:15;;;;;;;4.50;3.13;;;20.10;45.80;;;;;;4975453;28;20294;-51
2023/09/27 02:29:43;;;;;;;4.70;3.17;;;20.00;45.80;;;;;;4975715;28;20546;-50
2023/09/27 02:32:09;;;;;;;3.72;2.45;;;20.00;46.20;;;;;;4975232;28;20207;-50
2023/09/27 02:34:36;;;;;;;4.50;3.17;;;19.90;46.50;;;;;;4975388;28;20176;-50
2023/09/27 02:37:02;;;;;;;6.90;3.92;;;19.80;46.70;;;;;;4975179;28;20214;-53
2023/09/27 02:39:31;;;;;;;3.78;2.45;;;19.80;47.00;;;;;;4975686;28;20178;-54
2023/09/27 02:41:57;;;;;;;5.85;2.40;;;19.70;47.90;;;;;;4975153;28;20651;-51
2023/09/27 02:44:23;;;;;;;3.22;2.25;;;19.70;47.10;;;;;;4975338;28;20550;-52
2023/09/27 02:46:52;;;;;;;5.63;3.10;;;19.70;46.90;;;;;;4975142;28;20191;-51
2023/09/27 02:49:19;;;;;;;4.13;2.90;;;19.70;46.70;;;;;;4975169;28;20210;-50
2023/09/27 02:51:47;;;;;;;3.00;2.70;;;19.70;46.60;;;;;;4974824;28;20207;-51
2023/09/27 02:54:14;;;;;;;4.00;2.92;;;19.70;46.50;;;;;;4975020;28;20677;-55
2023/09/27 02:56:42;;;;;;;3.05;2.30;;;19.70;46.40;;;;;;4975631;28;20191;-56
2023/09/27 02:59:07;;;;;;;5.38;3.38;;;19.60;46.40;;;;;;4976171;28;20602;-55
2023/09/27 03:01:33;;;;;;;5.03;3.10;;;19.60;46.30;;;;;;4976085;28;20176;-54
2023/09/27 03:03:59;;;;;;;5.63;3.70;;;19.60;46.20;;;;;;4975842;28;20567;-55
2023/09/27 03:06:25;;;;;;;4.73;2.30;;;19.60;46.20;;;;;;4976136;28;20230;-55
2023/09/27 03:08:50;;;;;;;5.83;4.03;;;19.60;46.10;;;;;;4975948;28;20424;-55
2023/09/27 03:11:17;;;;;;;5.83;3.43;;;19.60;46.10;;;;;;4975508;28;20174;-52
2023/09/27 03:13:44;;;;;;;4.60;2.70;;;19.60;46.30;;;;;;4974938;28;20204;-51
2023/09/27 03:16:10;;;;;;;4.85;3.10;;;19.60;46.20;;;;;;4975066;28;20259;-50
2023/09/27 03:18:36;;;;;;;4.00;3.10;;;19.60;46.30;;;;;;4975150;28;20210;-51
2023/09/27 03:21:02;;;;;;;5.00;3.22;;;19.60;46.20;;;;;;4975642;28;20191;-51
2023/09/27 03:23:29;;;;;;;4.37;2.40;;;19.60;46.60;;;;;;4975054;28;20266;-52
2023/09/27 03:25:57;;;;;;;4.55;3.35;;;19.50;46.70;;;;;;4975449;28;20454;-52
2023/09/27 03:28:23;;;;;;;3.83;2.47;;;19.50;47.80;;;;;;4975096;28;20206;-52
2023/09/27 03:30:49;;;;;;;3.40;2.10;;;19.40;46.80;;;;;;4975710;28;20365;-52
2023/09/27 03:33:15;;;;;;;2.67;2.20;;;19.50;46.70;;;;;;4975024;28;20224;-55
2023/09/27 03:35:41;;;;;;;4.90;2.80;;;19.50;46.50;;;;;;4976002;28;20404;-55
2023/09/27 03:38:08;;;;;;;6.32;2.95;;;19.50;46.40;;;;;;4975435;28;20462;-55
2023/09/27 03:40:34;;;;;;;5.27;2.20;;;19.40;46.30;;;;;;4975434;28;20164;-52
2023/09/27 03:43:00;;;;;;;8.57;2.80;;;19.40;46.30;;;;;;4975352;28;20207;-51
2023/09/27 03:45:25;;;;;;;5.33;3.30;;;19.40;46.30;;;;;;4975438;28;20186;-51
2023/09/27 03:47:51;;;;;;;3.27;2.27;;;19.40;46.30;;;;;;4974016;28;20227;-51
2023/09/27 03:50:17;;;;;;;6.33;3.00;;;19.40;46.20;;;;;;4975950;28;20523;-51
2023/09/27 03:52:43;;;;;;;5.37;2.90;;;19.40;46.00;;;;;;4975314;28;20218;-52
2023/09/27 03:55:11;;;;;;;4.43;3.00;;;19.40;45.70;;;;;;4975713;28;20435;-50
2023/09/27 03:57:37;;;;;;;5.10;3.08;;;19.30;45.60;;;;;;4975152;28;20203;-53
2023/09/27 04:00:12;;;;;;;3.83;2.85;;;19.30;45.80;;;;;;4975659;28;20176;-51
2023/09/27 04:02:38;;;;;;;7.18;2.53;;;19.20;45.90;;;;;;4974428;28;20190;-52
2023/09/27 04:05:05;;;;;;;6.20;3.37;;;19.10;46.10;;;;;;4974818;28;20187;-55
2023/09/27 04:07:30;;;;;;;5.03;4.18;;;19.10;46.20;;;;;;4974337;28;20196;-55
2023/09/27 04:09:56;;;;;;;6.10;3.37;;;19.10;46.30;;;;;;4974735;28;20258;-54
2023/09/27 04:12:22;;;;;;;4.93;2.87;;;19.10;46.30;;;;;;4974307;28;20734;-51
2023/09/27 04:14:48;;;;;;;3.10;2.07;;;19.10;46.30;;;;;;4973892;28;20494;-52
2023/09/27 04:17:14;;;;;;;3.50;2.53;;;19.10;46.20;;;;;;4973607;28;20787;-52
2023/09/27 04:19:40;;;;;;;4.45;3.08;;;19.10;46.10;;;;;;4973381;28;20180;-52
2023/09/27 04:22:06;;;;;;;4.33;2.20;;;19.10;46.20;;;;;;4973236;28;20231;-51
2023/09/27 04:24:31;;;;;;;4.00;3.07;;;19.00;46.10;;;;;;4973446;28;20172;-52
2023/09/27 04:26:58;;;;;;;4.13;2.80;;;19.00;46.20;;;;;;4973153;28;20188;-52
2023/09/27 04:29:24;;;;;;;3.13;2.25;;;19.00;46.30;;;;;;4973337;28;20439;-51
2023/09/27 04:31:50;;;;;;;4.80;3.20;;;19.00;46.30;;;;;;4973016;28;20243;-51
2023/09/27 04:34:17;;;;;;;6.37;3.47;;;19.00;47.00;;;;;;4972990;28;20172;-52
2023/09/27 04:36:44;;;;;;;3.70;2.58;;;18.90;47.20;;;;;;4972782;28;20176;-50
2023/09/27 04:39:13;;;;;;;5.20;3.13;;;18.90;47.10;;;;;;4973343;28;20187;-51
2023/09/27 04:41:39;;;;;;;6.40;2.92;;;19.00;47.00;;;;;;4973170;28;20184;-52
2023/09/27 04:44:05;;;;;;;5.23;3.23;;;19.00;46.80;;;;;;4973799;28;20199;-53
2023/09/27 04:46:32;;;;;;;3.50;2.13;;;19.00;46.50;;;;;;4973159;28;20419;-51
2023/09/27 04:48:58;;;;;;;3.13;2.45;;;19.00;46.50;;;;;;4973114;28;20514;-54
2023/09/27 04:51:24;;;;;;;4.97;3.58;;;18.90;46.50;;;;;;4973063;28;20187;-51
2023/09/27 04:53:50;;;;;;;6.80;3.57;;;18.90;46.50;;;;;;4972931;28;20168;-51
2023/09/27 04:56:16;;;;;;;4.33;2.40;;;18.90;46.70;;;;;;4973076;28;20172;-53
2023/09/27 04:58:41;;;;;;;3.87;3.13;;;18.90;46.60;;;;;;4972919;28;20307;-52
2023/09/27 05:01:07;;;;;;;5.60;2.90;;;18.90;46.40;;;;;;4972996;28;20178;-54
2023/09/27 05:03:33;;;;;;;5.23;2.47;;;18.90;46.40;;;;;;4972829;28;20168;-51
2023/09/27 05:05:59;;;;;;;2.90;2.23;;;18.80;46.30;;;;;;4973541;28;20430;-51
2023/09/27 05:08:26;;;;;;;4.27;3.00;;;18.80;46.40;;;;;;4972876;28;20431;-53
2023/09/27 05:10:52;;;;;;;6.13;3.22;;;18.80;46.50;;;;;;4972821;28;20179;-52
2023/09/27 05:13:21;;;;;;;2.45;1.40;;;18.80;46.50;;;;;;4972588;28;20207;-52
2023/09/27 05:15:51;;;;;;;3.30;3.00;;;18.80;46.60;;;;;;4973025;28;20176;-54
2023/09/27 05:18:16;;;;;;;3.70;2.60;;;18.80;46.70;;;;;;4973618;28;20195;-54
2023/09/27 05:20:45;;;;;;;3.43;2.17;;;18.80;46.70;;;;;;4972796;28;20220;-50
2023/09/27 05:23:12;;;;;;;6.85;5.72;;;18.70;46.70;;;;;;4972649;28;20227;-53
2023/09/27 05:25:38;;;;;;;6.45;3.72;;;18.80;47.20;;;;;;4972575;28;20271;-52
2023/09/27 05:28:04;;;;;;;4.75;2.92;;;18.70;47.70;;;;;;4972710;28;20207;-53
2023/09/27 05:30:31;;;;;;;5.93;3.33;;;18.70;47.80;;;;;;4972605;28;20251;-54
2023/09/27 05:32:57;;;;;;;4.65;3.05;;;18.80;47.70;;;;;;4972914;28;20204;-52
2023/09/27 05:35:23;;;;;;;6.20;4.70;;;18.80;47.60;;;;;;4972958;28;20647;-51
2023/09/27 05:37:50;;;;;;;5.13;2.80;;;18.80;47.50;;;;;;4973165;28;20431;-54
2023/09/27 05:40:16;;;;;;;7.70;6.05;;;18.90;47.60;;;;;;4972615;28;20693;-52
2023/09/27 05:42:42;;;;;;;8.73;4.07;;;18.90;47.60;;;;;;4972505;28;20176;-52
2023/09/27 05:45:12;;;;;;;5.10;2.92;;;18.90;47.60;;;;;;4972589;28;20178;-54
2023/09/27 05:47:39;;;;;;;5.25;4.22;;;18.90;48.20;;;;;;4974988;28;20203;-52
2023/09/27 05:50:08;;;;;;;5.40;3.35;;;19.70;48.30;;;;;;4976233;28;20184;-51
2023/09/27 05:52:34;;;;;;;4.90;3.42;;;19.00;48.10;;;;;;4975753;28;20254;-54
2023/09/27 05:55:00;;;;;;;6.35;2.70;;;19.10;48.20;;;;;;4975900;28;20180;-52
2023/09/27 05:57:26;;;;;;;3.67;2.67;;;19.20;48.10;;;;;;4975941;28;20199;-53
2023/09/27 05:59:52;;;;;;;4.80;2.90;;;19.30;48.20;;;;;;4976059;28;20180;-54
2023/09/27 06:02:20;;;;;;;4.88;3.28;;;19.40;47.90;;;;;;4975774;28;20422;-55
2023/09/27 06:04:47;;;;;;;4.07;2.95;;;19.60;48.10;;;;;;4975908;28;20202;-52
2023/09/27 06:07:15;;;;;;;8.63;2.83;;;19.70;48.00;;;;;;4975737;28;20191;-54
2023/09/27 06:09:44;;;;;;;5.38;2.90;;;19.80;47.90;;;;;;4975738;28;20238;-54
2023/09/27 06:12:10;;;;;;;4.55;3.03;;;20.00;48.00;;;;;;4975450;28;20204;-50
2023/09/27 06:14:38;;;;;;;6.13;3.13;;;20.10;47.80;;;;;;4975611;28;20180;-51
2023/09/27 06:17:05;;;;;;;7.35;3.15;;;20.20;47.70;;;;;;4975672;28;20646;-52
2023/09/27 06:19:32;;;;;;;4.88;2.70;;;20.20;47.50;;;;;;4975659;28;20698;-52
2023/09/27 06:22:00;;;;;;;4.55;2.83;;;20.40;47.50;;;;;;4975349;28;20179;-50
2023/09/27 06:24:26;;;;;;;7.45;3.08;;;20.50;48.00;;;;;;4975520;28;20187;-53
2023/09/27 06:26:52;;;;;;;7.53;2.80;;;20.50;48.20;;;;;;4975368;28;20192;-52
2023/09/27 06:29:19;;;;;;;5.00;3.08;;;20.60;47.90;;;;;;4975350;28;20180;-53
2023/09/27 06:31:53;;;;;;;3.57;2.07;;;20.70;47.80;;;;;;4975286;28;20800;-52
2023/09/27 06:34:19;;;;;;;7.25;3.53;;;20.80;47.80;;;;;;4975243;28;20990;-50
2023/09/27 06:36:48;;;;;;;8.25;3.70;;;20.90;47.90;;;;;;4975155;28;20176;-53
2023/09/27 06:39:15;;;;;;;8.25;3.92;;;21.00;48.00;;;;;;4975278;28;20310;-52
2023/09/27 06:41:45;;;;;;;4.60;3.13;;;21.10;48.10;;;;;;4975512;28;20165;-52
2023/09/27 06:44:12;;;;;;;6.00;4.10;;;21.30;47.90;;;;;;4975355;28;20404;-51
2023/09/27 06:46:38;;;;;;;6.40;4.03;;;21.40;47.70;;;;;;4975064;28;20766;-54
2023/09/27 06:49:04;;;;;;;8.30;3.20;;;21.50;47.70;;;;;;4974908;28;20527;-51
2023/09/27 06:51:31;;;;;;;4.03;3.23;;;21.60;47.70;;;;;;4974808;28;20412;-51
2023/09/27 06:53:57;;;;;;;6.90;3.83;;;21.70;47.80;;;;;;4974845;28;20490;-52
2023/09/27 06:56:23;;;;;;;5.70;3.83;;;21.80;47.70;;;;;;4975069;28;20773;-52
2023/09/27 06:58:51;;;;;;;6.70;4.17;;;21.90;47.70;;;;;;4973909;28;20463;-53
2023/09/27 07:01:17;;;;;;;3.93;3.30;;;22.00;47.70;;;;;;4974860;28;20419;-51
2023/09/27 07:03:43;;;;;;;5.93;4.20;;;22.10;47.80;;;;;;4974414;28;20414;-53
2023/09/27 07:06:09;;;;;;;3.93;2.87;;;22.20;47.80;;;;;;4975392;28;20415;-54
2023/09/27 07:08:35;;;;;;;4.77;4.27;;;22.20;47.60;;;;;;4975582;28;20207;-52
2023/09/27 07:11:05;;;;;;;6.80;4.70;;;22.30;47.90;;;;;;4974619;28;20187;-51
2023/09/27 07:13:32;;;;;;;4.70;3.43;;;22.40;47.80;;;;;;4974462;28;20964;-53
2023/09/27 07:15:59;;;;;;;5.40;3.27;;;22.40;47.80;;;;;;4974940;28;20470;-50
2023/09/27 07:18:25;;;;;;;3.90;2.60;;;22.50;47.90;;;;;;4974387;28;20455;-51
2023/09/27 07:20:51;;;;;;;9.30;4.77;;;22.60;48.00;;;;;;4974464;28;20399;-53
2023/09/27 07:23:18;;;;;;;7.50;3.70;;;22.80;47.80;;;;;;4974744;28;20419;-49
2023/09/27 07:25:44;;;;;;;5.63;4.23;;;22.80;47.60;;;;;;4974483;28;20433;-50
2023/09/27 07:28:10;;;;;;;9.20;4.27;;;22.90;47.70;;;;;;4974499;28;20551;-53
2023/09/27 07:30:37;;;;;;;3.87;3.27;;;22.90;47.70;;;;;;4974342;28;20443;-53
2023/09/27 07:33:09;;;;;;;5.93;4.57;;;23.00;47.70;;;;;;4973951;28;20846;-49
2023/09/27 07:35:38;;;;;;;7.67;4.27;;;23.10;47.80;;;;;;4974193;28;20450;-53
2023/09/27 07:38:07;;;;;;;7.83;4.20;;;23.30;47.60;;;;;;4974224;28;20437;-50
2023/09/27 07:40:33;;;;;;;9.27;4.63;;;23.40;47.30;;;;;;4974118;28;20425;-53
2023/09/27 07:42:59;;;;;;;4.80;3.70;;;23.60;47.50;;;;;;4973896;28;20411;-50
2023/09/27 07:45:31;;;;;;;4.10;3.27;;;23.80;47.20;;;;;;4973903;28;20176;-51
2023/09/27 07:47:57;;;;;;;9.00;4.90;;;23.90;46.80;;;;;;4974164;28;20427;-50
2023/09/27 07:50:28;;;;;;;4.37;3.60;;;24.00;46.90;;;;;;4974104;28;20515;-50
2023/09/27 07:53:03;;;;;;;5.07;3.70;;;24.10;46.80;;;;;;4973589;28;20459;-54
2023/09/27 07:55:32;;;;;;;4.57;3.23;;;24.20;46.50;;;;;;4973938;28;20407;-53
2023/09/27 07:58:03;;;;;;;4.97;3.90;;;24.30;46.50;;;;;;4973587;28;20429;-51
2023/09/27 08:00:29;;;;;;;5.03;3.60;;;24.40;46.40;;;;;;4973762;28;20415;-52
2023/09/27 08:02:57;;;;;;;7.50;4.30;;;24.40;46.00;;;;;;4973788;28;20415;-52
2023/09/27 08:05:24;;;;;;;5.37;3.87;;;24.50;46.10;;;;;;4973834;28;20424;-50
2023/09/27 08:07:54;;;;;;;5.17;3.40;;;24.40;45.40;;;;;;4973623;28;21164;-50
2023/09/27 08:10:21;;;;;;;4.97;3.87;;;24.50;45.90;;;;;;4973379;28;20435;-53
2023/09/27 08:12:47;;;;;;;5.50;3.40;;;24.50;46.00;;;;;;4973262;28;20458;-50
2023/09/27 08:15:13;;;;;;;5.97;3.57;;;24.60;46.10;;;;;;4973906;28;20426;-49
2023/09/27 08:17:39;;;;;;;4.90;3.23;;;24.60;46.00;;;;;;4973421;28;20802;-52
2023/09/27 08:20:12;;;;;;;6.30;3.70;;;24.70;46.00;;;;;;4973552;28;20466;-51
2023/09/27 08:22:39;;;;;;;4.30;3.47;;;24.80;46.00;;;;;;4973246;28;20423;-52
2023/09/27 08:25:09;;;;;;;7.10;3.33;;;24.80;45.80;;;;;;4973334;28;20431;-51
2023/09/27 08:27:35;;;;;;;6.00;3.93;;;24.90;45.90;;;;;;4973200;28;20489;-54
2023/09/27 08:30:05;;;;;;;5.60;3.23;;;24.90;45.60;;;;;;4973366;28;20509;-53
2023/09/27 08:32:32;;;;;;;5.30;3.30;;;25.00;45.60;;;;;;4973043;28;20988;-50
2023/09/27 08:34:57;;;;;;;7.83;3.20;;;25.00;45.50;;;;;;4973284;28;20818;-50
2023/09/27 08:37:23;;;;;;;6.13;3.00;;;25.10;45.40;;;;;;4973139;28;20427;-52
2023/09/27 08:39:49;;;;;;;4.80;4.00;;;25.10;45.20;;;;;;4973200;28;20187;-49
2023/09/27 08:42:15;;;;;;;12.80;3.03;;;25.20;45.00;;;;;;4973144;28;20180;-52
2023/09/27 08:44:41;;;;;;;5.97;4.20;;;25.30;45.10;;;;;;4973143;28;20419;-54
2023/09/27 08:47:07;;;;;;;5.67;3.47;;;25.40;45.20;;;;;;4973236;28;20200;-55
2023/09/27 08:49:34;;;;;;;4.70;3.40;;;25.50;44.30;;;;;;4973121;28;20502;-49
2023/09/27 08:52:02;;;;;;;5.97;3.47;;;25.50;44.60;;;;;;4972767;28;20691;-55
2023/09/27 08:54:28;;;;;;;5.10;3.73;;;25.60;44.50;;;;;;4973155;28;20415;-49
2023/09/27 08:56:55;;;;;;;4.10;3.47;;;25.70;44.30;;;;;;4973010;28;20437;-50
2023/09/27 08:59:21;;;;;;;4.40;3.00;;;25.80;44.30;;;;;;4973193;28;20420;-52
2023/09/27 09:01:50;;;;;;;5.97;4.17;;;25.90;44.30;;;;;;4973024;28;20458;-53
2023/09/27 09:04:16;;;;;;;5.50;3.73;;;26.00;44.10;;;;;;4971606;28;20906;-50
2023/09/27 09:06:43;;;;;;;4.77;2.80;;;26.00;44.00;;;;;;4972927;28;20470;-51
2023/09/27 09:09:12;;;;;;;4.67;3.47;;;26.00;44.30;;;;;;4973144;28;20778;-50
2023/09/27 09:11:54;;;;;;;6.97;4.00;;;26.10;43.90;;;;;;4972768;28;20490;-49
2023/09/27 09:14:49;;;;;;;6.40;3.20;;;26.20;44.00;;;;;;4972898;28;20498;-48
2023/09/27 09:17:18;;;;;;;4.33;3.67;;;26.30;43.80;;;;;;4972754;28;20968;-51
2023/09/27 09:20:01;;;;;;;5.27;3.43;;;26.40;43.90;;;;;;4972823;28;20412;-51
2023/09/27 09:22:30;;;;;;;5.73;5.03;;;26.50;42.90;;;;;;4975055;28;20407;-52
2023/09/27 09:24:59;;;;;;;3.23;2.80;;;26.70;43.30;;;;;;4976601;28;20498;-51
2023/09/27 09:27:25;;;;;;;5.07;2.87;;;26.70;43.00;;;;;;4976260;28;20486;-51
2023/09/27 09:29:53;;;;;;;4.63;2.93;;;26.80;42.50;;;;;;4976444;28;20454;-49
2023/09/27 09:32:21;;;;;;;5.87;3.70;;;26.90;42.50;;;;;;4976380;28;20547;-52
2023/09/27 09:34:51;;;;;;;3.80;2.73;;;27.00;42.90;;;;;;4976400;28;20410;-50
2023/09/27 09:37:18;;;;;;;3.10;2.50;;;27.10;43.00;;;;;;4976430;28;20983;-49
2023/09/27 09:39:46;;;;;;;5.57;3.00;;;27.20;42.50;;;;;;4976276;28;20466;-53
2023/09/27 09:42:12;;;;;;;3.40;2.50;;;27.30;42.40;;;;;;4975896;28;20558;-52
2023/09/27 09:44:39;;;;;;;3.47;3.13;;;27.40;41.50;;;;;;4976174;28;20410;-51
2023/09/27 09:47:11;;;;;;;3.60;2.70;;;27.30;41.50;;;;;;4976299;28;20430;-52
2023/09/27 09:49:37;;;;;;;3.80;3.30;;;27.40;41.80;;;;;;4976126;28;20411;-48
2023/09/27 09:52:06;;;;;;;5.50;2.70;;;27.40;41.70;;;;;;4975893;28;20446;-50
2023/09/27 09:54:46;;;;;;;4.10;3.23;;;27.60;40.90;;;;;;4975958;28;20498;-50
2023/09/27 09:57:19;;;;;;;3.50;2.80;;;27.60;41.00;;;;;;4976242;28;20431;-52
2023/09/27 10:00:25;;;;;;;4.70;2.83;;;27.70;41.70;;;;;;4976158;28;20422;-53
2023/09/27 10:03:04;;;;;;;6.60;3.43;;;27.80;41.40;;;;;;4976170;28;20426;-50
2023/09/27 10:05:39;;;;;;;4.87;3.10;;;27.90;40.40;;;;;;4976142;28;20435;-51
2023/09/27 10:08:06;;;;;;;4.97;3.03;;;28.10;41.40;;;;;;4975794;28;20435;-50
2023/09/27 10:10:33;;;;;;;4.03;3.20;;;28.10;41.50;;;;;;4975819;28;20407;-53
2023/09/27 10:13:00;;;;;;;4.93;3.50;;;28.20;41.50;;;;;;4975484;28;20541;-50
2023/09/27 10:15:27;;;;;;;7.60;3.70;;;28.30;41.00;;;;;;4975652;28;20403;-50
2023/09/27 10:18:13;;;;;;;3.30;2.60;;;28.40;40.60;;;;;;4975545;28;20446;-53
2023/09/27 10:21:04;;;;;;;3.30;2.63;;;28.50;40.90;;;;;;4975495;28;20411;-53
2023/09/27 10:23:53;;;;;;;7.53;4.50;;;28.60;40.80;;;;;;4975374;28;20408;-50
2023/09/27 10:26:20;;;;;;;3.37;2.80;;;28.70;40.10;;;;;;4970166;28;20475;-51
2023/09/27 10:29:01;;;;;;;4.47;3.40;;;28.70;39.90;;;;;;4975314;28;20434;-52
2023/09/27 10:31:28;;;;;;;4.40;3.70;;;28.80;39.60;;;;;;4975421;28;20499;-50
2023/09/27 10:33:53;;;;;;;3.50;2.90;;;28.80;39.40;;;;;;4973848;28;20460;-50
2023/09/27 10:36:19;;;;;;;2.93;2.30;;;28.90;39.10;;;;;;4975360;28;20410;-51
2023/09/27 10:38:45;;;;;;;3.80;2.73;;;28.90;38.80;;;;;;4975383;28;21002;-49
2023/09/27 10:41:33;;;;;;;4.50;2.67;;;29.10;39.00;;;;;;4975369;28;20430;-52
2023/09/27 10:44:00;;;;;;;3.27;2.33;;;29.20;38.90;;;;;;4974966;28;20192;-50
2023/09/27 10:46:26;;;;;;;2.57;2.13;;;29.20;39.00;;;;;;4975177;28;20439;-52
2023/09/27 10:48:56;;;;;;;3.03;2.10;;;29.20;38.60;;;;;;4974989;28;21004;-49
2023/09/27 10:51:25;;;;;;;3.67;2.80;;;29.20;37.90;;;;;;4975167;28;20453;-48
2023/09/27 10:53:51;;;;;;;4.27;2.93;;;29.30;38.00;;;;;;4974706;28;20453;-53
2023/09/27 10:56:18;;;;;;;4.53;2.83;;;29.30;37.60;;;;;;4975075;28;20420;-52
2023/09/27 10:58:49;;;;;;;3.60;2.90;;;29.40;37.50;;;;;;4974933;28;20430;-50
2023/09/27 11:01:24;;;;;;;4.73;3.20;;;29.40;37.40;;;;;;4974674;28;20455;-53
2023/09/27 11:04:00;;;;;;;3.00;2.30;;;29.50;37.90;;;;;;4974611;28;20407;-50
2023/09/27 11:06:28;;;;;;;2.53;2.23;;;29.70;38.10;;;;;;4974846;28;20408;-51
2023/09/27 11:09:08;;;;;;;5.10;2.90;;;29.80;36.60;;;;;;4974699;28;20432;-49
2023/09/27 11:11:34;;;;;;;3.53;1.90;;;29.80;37.30;;;;;;4974485;28;20478;-52
2023/09/27 11:14:00;;;;;;;2.87;2.33;;;29.80;37.20;;;;;;4974497;28;20467;-50
2023/09/27 11:16:26;;;;;;;4.93;2.17;;;30.00;37.10;;;;;;4974607;28;20409;-52
2023/09/27 11:18:53;;;;;;;4.13;2.50;;;30.10;36.30;;;;;;4974488;28;20433;-51
2023/09/27 11:21:19;;;;;;;3.40;2.27;;;30.20;37.00;;;;;;4974576;28;20416;-50
2023/09/27 11:23:56;;;;;;;2.40;2.00;;;30.30;35.40;;;;;;4974262;28;20473;-50
2023/09/27 11:26:24;;;;;;;3.10;1.67;;;30.40;34.00;;;;;;4974365;28;20438;-54
2023/09/27 11:28:57;;;;;;;3.10;2.63;;;30.40;34.40;;;;;;4974439;28;20431;-51
2023/09/27 11:31:23;;;;;;;3.50;2.30;;;30.50;32.40;;;;;;4974243;28;20493;-51
2023/09/27 11:33:50;;;;;;;3.20;2.40;;;30.50;33.60;;;;;;4973911;28;20989;-55
2023/09/27 11:36:15;;;;;;;2.67;2.23;;;30.60;32.90;;;;;;4974381;28;20430;-51
2023/09/27 11:38:51;;;;;;;2.47;1.93;;;30.70;33.00;;;;;;4973957;28;20953;-51
2023/09/27 11:41:20;;;;;;;3.40;2.47;;;30.80;33.70;;;;;;4974043;28;20172;-50
2023/09/27 11:43:45;;;;;;;2.87;2.47;;;30.80;32.90;;;;;;4973747;28;20431;-55
2023/09/27 11:46:12;;;;;;;2.43;2.00;;;30.80;32.10;;;;;;4973985;28;20460;-50
2023/09/27 11:48:39;;;;;;;3.30;2.00;;;30.90;32.20;;;;;;4973892;28;20503;-55
2023/09/27 11:51:05;;;;;;;3.20;2.00;;;30.90;32.10;;;;;;4973846;28;20395;-53
2023/09/27 11:53:31;;;;;;;3.77;2.73;;;31.00;32.20;;;;;;4973649;28;20486;-49
2023/09/27 11:55:59;;;;;;;3.80;2.83;;;31.00;31.90;;;;;;4974139;28;20498;-52
2023/09/27 11:58:26;;;;;;;3.17;1.53;;;31.00;31.60;;;;;;4973978;28;20582;-49
2023/09/27 12:00:52;;;;;;;2.93;2.20;;;31.00;31.20;;;;;;4973783;28;20411;-50
2023/09/27 12:03:17;;;;;;;4.47;2.40;;;31.00;31.90;;;;;;4973570;28;20646;-52
2023/09/27 12:05:44;;;;;;;4.33;1.93;;;31.00;31.40;;;;;;4973630;28;20219;-55
2023/09/27 12:08:10;;;;;;;2.93;2.00;;;31.10;31.30;;;;;;4973610;28;20195;-52
2023/09/27 12:10:36;;;;;;;2.27;2.07;;;31.10;30.00;;;;;;4973823;28;20442;-53
2023/09/27 12:13:02;;;;;;;3.40;2.40;;;31.10;29.90;;;;;;4973369;28;20918;-52
2023/09/27 12:15:28;;;;;;;2.80;2.43;;;31.20;27.70;;;;;;4973685;28;20538;-53
2023/09/27 12:17:54;;;;;;;5.30;2.00;;;31.10;29.10;;;;;;4973381;28;20881;-50
2023/09/27 12:20:19;;;;;;;2.00;1.50;;;31.10;30.00;;;;;;4973319;28;20168;-53
2023/09/27 12:22:45;;;;;;;2.07;1.87;;;31.30;30.10;;;;;;4973170;28;20182;-53
2023/09/27 12:25:11;;;;;;;4.40;2.27;;;31.30;29.80;;;;;;4973400;28;20179;-50
2023/09/27 12:27:37;;;;;;;2.10;1.70;;;31.40;30.30;;;;;;4973244;28;20243;-51
2023/09/27 12:30:05;;;;;;;2.43;1.57;;;31.40;30.30;;;;;;4973402;28;20411;-50
2023/09/27 12:32:30;;;;;;;1.83;1.63;;;31.40;27.60;;;;;;4973153;28;20204;-54
2023/09/27 12:34:56;;;;;;;2.20;1.80;;;31.50;27.60;;;;;;4973305;28;20781;-54
2023/09/27 12:37:22;;;;;;;2.40;1.50;;;31.50;28.00;;;;;;4973480;28;20627;-50
2023/09/27 12:39:48;;;;;;;2.70;2.20;;;31.60;27.80;;;;;;4973240;28;20172;-53
2023/09/27 12:42:13;;;;;;;2.80;2.07;;;31.60;27.30;;;;;;4973028;28;20318;-51
2023/09/27 12:44:39;;;;;;;3.13;2.37;;;31.70;27.50;;;;;;4973182;28;20262;-51
2023/09/27 12:47:05;;;;;;;2.20;1.13;;;31.70;26.90;;;;;;4973084;28;20203;-53
2023/09/27 12:49:31;;;;;;;2.47;1.97;;;31.70;26.30;;;;;;4973091;28;20234;-51